createdAt,value
2018-02-03T00:00:28.336Z,95864.31
2018-02-03T00:02:54.378Z,95852.44
2018-02-03T00:05:20.420Z,95857.50
2018-02-03T00:07:46.421Z,95863.16
2018-02-03T00:10:12.457Z,95858.68
2018-02-03T00:12:38.513Z,95864.20
2018-02-03T00:15:04.591Z,95863.30
2018-02-03T00:17:30.644Z,95864.98
2018-02-03T00:19:56.724Z,95866.02
2018-02-03T00:22:22.700Z,95867.17
2018-02-03T00:24:48.700Z,95859.62
2018-02-03T00:27:14.716Z,95863.27
2018-02-03T00:29:40.745Z,95869.98
2018-02-03T00:32:06.720Z,95872.87
2018-02-03T00:34:32.756Z,95873.72
2018-02-03T00:36:58.981Z,95873.38
2018-02-03T00:39:25.008Z,95872.35
2018-02-03T00:41:51.044Z,95876.39
2018-02-03T00:44:17.108Z,95872.70
2018-02-03T00:46:43.147Z,95881.73
2018-02-03T00:49:09.219Z,95881.46
2018-02-03T00:51:35.212Z,95884.00
2018-02-03T00:54:01.237Z,95878.50
2018-02-03T00:56:27.325Z,95880.38
2018-02-03T00:58:53.321Z,95881.97
2018-02-03T01:01:19.409Z,95881.07
2018-02-03T01:03:45.379Z,95878.26
2018-02-03T01:06:11.391Z,95874.70
2018-02-03T01:08:37.392Z,95871.64
2018-02-03T01:11:03.341Z,95874.19
2018-02-03T01:13:29.361Z,95867.54
2018-02-03T01:15:55.380Z,95871.69
2018-02-03T01:18:21.396Z,95870.66
2018-02-03T01:20:47.456Z,95862.84
2018-02-03T01:23:13.445Z,95862.13
2018-02-03T01:25:39.456Z,95859.05
2018-02-03T01:28:05.473Z,95859.34
2018-02-03T01:30:31.487Z,95860.70
2018-02-03T01:32:57.473Z,95859.97
2018-02-03T01:35:23.557Z,95844.08
2018-02-03T01:37:49.545Z,95859.14
2018-02-03T01:40:15.847Z,95852.55
2018-02-03T01:42:41.968Z,95851.83
2018-02-03T01:45:07.980Z,95848.19
2018-02-03T01:47:46.200Z,95854.33
2018-02-03T01:50:12.192Z,95857.17
2018-02-03T01:52:38.225Z,95859.98
2018-02-03T01:55:04.249Z,95843.12
2018-02-03T01:57:30.216Z,95850.94
2018-02-03T01:59:56.256Z,95853.17
2018-02-03T02:02:22.272Z,95838.78
2018-02-03T02:04:48.237Z,95836.38
2018-02-03T02:07:14.243Z,95830.14
2018-02-03T02:09:40.300Z,95826.52
2018-02-03T02:12:06.339Z,95828.88
2018-02-03T02:14:32.396Z,95827.00
2018-02-03T02:16:58.511Z,95826.62
2018-02-03T02:19:24.564Z,95829.94
2018-02-03T02:21:50.575Z,95829.03
2018-02-03T02:24:16.536Z,95825.80
2018-02-03T02:26:42.582Z,95826.44
2018-02-03T02:29:08.640Z,95828.64
2018-02-03T02:31:34.608Z,95823.87
2018-02-03T02:34:00.608Z,95819.19
2018-02-03T02:36:26.724Z,95819.08
2018-02-03T02:38:53.032Z,95816.23
2018-02-03T02:41:18.993Z,95816.33
2018-02-03T02:43:45.028Z,95814.41
2018-02-03T02:46:11.025Z,95810.53
2018-02-03T02:48:37.036Z,95798.23
2018-02-03T02:51:03.129Z,95813.30
2018-02-03T02:53:29.116Z,95815.42
2018-02-03T02:55:55.148Z,95806.92
2018-02-03T02:58:21.176Z,95809.53
2018-02-03T03:00:47.257Z,95802.88
2018-02-03T03:03:13.255Z,95799.84
2018-02-03T03:05:39.249Z,95799.16
2018-02-03T03:08:05.309Z,95806.23
2018-02-03T03:10:31.368Z,95798.62
2018-02-03T03:12:57.411Z,95805.12
2018-02-03T03:15:23.427Z,95797.80
2018-02-03T03:17:49.391Z,95804.06
2018-02-03T03:20:15.446Z,95802.61
2018-02-03T03:22:41.460Z,95796.78
2018-02-03T03:25:07.468Z,95798.09
2018-02-03T03:27:33.472Z,95793.64
2018-02-03T03:29:59.496Z,95791.17
2018-02-03T03:32:25.598Z,95789.54
2018-02-03T03:34:51.625Z,95793.68
2018-02-03T03:37:17.696Z,95791.47
2018-02-03T03:39:43.740Z,95789.69
2018-02-03T03:42:09.757Z,95790.89
2018-02-03T03:44:35.740Z,95790.21
2018-02-03T03:47:01.833Z,95783.90
2018-02-03T03:49:27.817Z,95793.30
2018-02-03T03:51:53.863Z,95778.39
2018-02-03T03:54:19.879Z,95785.62
2018-02-03T03:56:45.897Z,95784.03
2018-02-03T03:59:11.904Z,95779.30
2018-02-03T04:01:37.941Z,95775.01
2018-02-03T04:04:03.969Z,95761.88
2018-02-03T04:06:30.048Z,95778.63
2018-02-03T04:08:56.063Z,95779.00
2018-02-03T04:11:22.037Z,95782.92
2018-02-03T04:13:48.097Z,95773.89
2018-02-03T04:16:14.193Z,95770.48
2018-02-03T04:18:40.243Z,95775.11
2018-02-03T04:21:06.309Z,95775.45
2018-02-03T04:23:32.312Z,95779.02
2018-02-03T04:25:58.304Z,95784.38
2018-02-03T04:28:24.352Z,95780.04
2018-02-03T04:30:50.379Z,95786.89
2018-02-03T04:33:16.424Z,95786.41
2018-02-03T04:35:42.491Z,95789.78
2018-02-03T04:38:08.486Z,95788.97
2018-02-03T04:40:34.542Z,95792.78
2018-02-03T04:43:00.624Z,95788.78
2018-02-03T04:45:26.634Z,95784.13
2018-02-03T04:47:52.637Z,95786.59
2018-02-03T04:50:18.716Z,95785.16
2018-02-03T04:52:44.721Z,95784.04
2018-02-03T04:55:10.661Z,95780.38
2018-02-03T04:57:36.680Z,95784.86
2018-02-03T05:00:02.961Z,95791.75
2018-02-03T05:02:28.968Z,95794.51
2018-02-03T05:04:54.936Z,95785.00
2018-02-03T05:07:20.973Z,95789.87
2018-02-03T05:09:46.959Z,95787.50
2018-02-03T05:12:12.974Z,95781.86
2018-02-03T05:14:38.973Z,95779.73
2018-02-03T05:17:04.964Z,95783.41
2018-02-03T05:19:30.977Z,95783.80
2018-02-03T05:21:56.996Z,95786.55
2018-02-03T05:24:23.024Z,95789.44
2018-02-03T05:26:49.104Z,95789.66
2018-02-03T05:29:15.151Z,95792.66
2018-02-03T05:31:41.160Z,95791.80
2018-02-03T05:34:07.231Z,95785.28
2018-02-03T05:36:33.308Z,95784.84
2018-02-03T05:38:59.407Z,95775.68
2018-02-03T05:41:25.391Z,95783.98
2018-02-03T05:43:51.811Z,95777.81
2018-02-03T05:46:17.820Z,95781.08
2018-02-03T05:48:43.852Z,95773.38
2018-02-03T05:51:09.877Z,95774.42
2018-02-03T05:53:35.883Z,95772.60
2018-02-03T05:56:01.944Z,95776.11
2018-02-03T05:58:28.128Z,95772.45
2018-02-03T06:00:54.184Z,95764.73
2018-02-03T06:03:20.219Z,95768.92
2018-02-03T06:05:46.240Z,95780.69
2018-02-03T06:08:12.228Z,95778.09
2018-02-03T06:10:38.241Z,95787.53
2018-02-03T06:13:04.235Z,95786.42
2018-02-03T06:15:30.245Z,95782.62
2018-02-03T06:17:56.227Z,95781.83
2018-02-03T06:20:22.232Z,95783.40
2018-02-03T06:22:48.310Z,95783.59
2018-02-03T06:25:14.272Z,95782.50
2018-02-03T06:27:40.285Z,95776.92
2018-02-03T06:30:06.273Z,95775.09
2018-02-03T06:32:32.297Z,95773.22
2018-02-03T06:34:58.319Z,95778.61
2018-02-03T06:37:24.312Z,95779.02
2018-02-03T06:39:50.376Z,95781.09
2018-02-03T06:42:16.385Z,95776.84
2018-02-03T06:44:42.432Z,95787.12
2018-02-03T06:47:08.927Z,95786.57
2018-02-03T06:49:34.947Z,95786.92
2018-02-03T06:52:00.955Z,95785.81
2018-02-03T06:54:27.352Z,95791.13
2018-02-03T06:56:53.348Z,95789.54
2018-02-03T06:59:19.357Z,95803.17
2018-02-03T07:01:45.390Z,95799.29
2018-02-03T07:04:11.423Z,95797.37
2018-02-03T07:06:37.361Z,95798.84
2018-02-03T07:09:03.380Z,95799.23
2018-02-03T07:11:29.406Z,95806.62
2018-02-03T07:13:55.417Z,95805.12
2018-02-03T07:16:21.413Z,95802.84
2018-02-03T07:18:47.488Z,95800.46
2018-02-03T07:21:13.496Z,95800.95
2018-02-03T07:23:39.508Z,95804.75
2018-02-03T07:26:05.537Z,95801.81
2018-02-03T07:28:31.548Z,95802.72
2018-02-03T07:30:57.660Z,95803.57
2018-02-03T07:33:23.657Z,95801.81
2018-02-03T07:35:49.671Z,95797.33
2018-02-03T07:38:15.677Z,95797.72
2018-02-03T07:40:41.719Z,95797.50
2018-02-03T07:43:07.680Z,95786.59
2018-02-03T07:45:33.678Z,95778.59
2018-02-03T07:47:59.707Z,95779.48
2018-02-03T07:50:25.768Z,95776.94
2018-02-03T07:52:51.861Z,95777.08
2018-02-03T07:55:17.904Z,95766.61
2018-02-03T07:57:43.905Z,95769.13
2018-02-03T08:00:09.982Z,95761.98
2018-02-03T08:02:35.973Z,95760.05
2018-02-03T08:05:02.063Z,95761.11
2018-02-03T08:07:28.085Z,95752.80
2018-02-03T08:09:54.133Z,95754.27
2018-02-03T08:12:20.097Z,95754.53
2018-02-03T08:14:46.041Z,95757.67
2018-02-03T08:17:12.012Z,95754.69
2018-02-03T08:19:38.002Z,95752.52
2018-02-03T08:22:04.060Z,95761.14
2018-02-03T08:24:30.093Z,95754.77
2018-02-03T08:26:56.111Z,95756.16
2018-02-03T08:29:22.148Z,95757.58
2018-02-03T08:31:48.275Z,95747.11
2018-02-03T08:34:14.373Z,95757.20
2018-02-03T08:36:40.377Z,95762.10
2018-02-03T08:39:06.459Z,95761.96
2018-02-03T08:41:32.482Z,95758.54
2018-02-03T08:43:58.474Z,95757.05
2018-02-03T08:46:24.527Z,95762.50
2018-02-03T08:48:50.597Z,95760.63
2018-02-03T08:51:16.644Z,95769.34
2018-02-03T08:53:42.648Z,95773.30
2018-02-03T08:56:08.736Z,95767.13
2018-02-03T08:58:34.775Z,95766.22
2018-02-03T09:01:00.785Z,95762.89
2018-02-03T09:03:26.883Z,95766.61
2018-02-03T09:05:52.952Z,95758.41
2018-02-03T09:08:19.033Z,95754.84
2018-02-03T09:10:45.030Z,95750.36
2018-02-03T09:13:11.048Z,95762.52
2018-02-03T09:15:37.028Z,95761.02
2018-02-03T09:18:03.019Z,95761.89
2018-02-03T09:20:29.064Z,95770.77
2018-02-03T09:22:55.184Z,95765.34
2018-02-03T09:25:21.202Z,95758.05
2018-02-03T09:27:47.140Z,95763.22
2018-02-03T09:30:13.220Z,95760.06
2018-02-03T09:32:39.207Z,95758.76
2018-02-03T09:35:05.288Z,95760.30
2018-02-03T09:37:31.629Z,95749.97
2018-02-03T09:39:57.656Z,95756.63
2018-02-03T09:42:23.877Z,95752.56
2018-02-03T09:44:50.110Z,95747.11
2018-02-03T09:47:16.159Z,95758.17
2018-02-03T09:49:42.148Z,95758.66
2018-02-03T09:52:08.208Z,95754.08
2018-02-03T09:54:34.404Z,95750.50
2018-02-03T09:57:00.448Z,95748.19
2018-02-03T09:59:26.457Z,95757.77
2018-02-03T10:01:52.495Z,95757.42
2018-02-03T10:04:18.510Z,95756.83
2018-02-03T10:06:44.963Z,95747.81
2018-02-03T10:09:10.945Z,95743.61
2018-02-03T10:11:36.995Z,95742.64
2018-02-03T10:14:03.024Z,95742.49
2018-02-03T10:16:29.140Z,95749.30
2018-02-03T10:18:55.179Z,95742.27
2018-02-03T10:21:21.153Z,95736.89
2018-02-03T10:23:47.153Z,95741.72
2018-02-03T10:26:13.196Z,95737.49
2018-02-03T10:28:39.199Z,95736.89
2018-02-03T10:31:05.205Z,95738.17
2018-02-03T10:33:31.238Z,95739.55
2018-02-03T10:35:57.243Z,95739.71
2018-02-03T10:38:23.619Z,95740.71
2018-02-03T10:40:49.636Z,95739.94
2018-02-03T10:43:15.609Z,95739.65
2018-02-03T10:45:41.597Z,95738.94
2018-02-03T10:48:07.639Z,95735.02
2018-02-03T10:50:33.709Z,95734.88
2018-02-03T10:52:59.802Z,95730.88
2018-02-03T10:55:25.856Z,95731.05
2018-02-03T10:57:52.217Z,95728.65
2018-02-03T11:00:18.245Z,95722.69
2018-02-03T11:02:44.393Z,95714.79
2018-02-03T11:05:10.440Z,95723.10
2018-02-03T11:07:36.457Z,95710.34
2018-02-03T11:10:02.795Z,95711.29
2018-02-03T11:12:28.817Z,95712.95
2018-02-03T11:14:54.885Z,95705.30
2018-02-03T11:17:21.923Z,95695.11
2018-02-03T11:19:48.021Z,95699.42
2018-02-03T11:22:14.054Z,95698.87
2018-02-03T11:24:43.828Z,95696.38
2018-02-03T11:27:11.294Z,95699.25
2018-02-03T11:29:37.387Z,95696.42
2018-02-03T11:32:03.462Z,95689.63
2018-02-03T11:34:29.507Z,95683.52
2018-02-03T11:36:55.634Z,95678.87
2018-02-03T11:39:22.678Z,95684.75
2018-02-03T11:41:49.002Z,95677.55
2018-02-03T11:44:15.026Z,95677.16
2018-02-03T11:46:41.036Z,95682.45
2018-02-03T11:49:07.163Z,95679.80
2018-02-03T11:51:33.204Z,95675.11
2018-02-03T11:53:59.250Z,95683.42
2018-02-03T11:56:25.317Z,95677.46
2018-02-03T11:58:51.368Z,95680.19
2018-02-03T12:01:17.555Z,95682.89
2018-02-03T12:03:43.564Z,95682.23
2018-02-03T12:06:09.629Z,95677.11
2018-02-03T12:08:35.693Z,95682.83
2018-02-03T12:11:01.735Z,95673.94
2018-02-03T12:13:27.741Z,95678.33
2018-02-03T12:15:53.789Z,95670.16
2018-02-03T12:18:19.824Z,95670.30
2018-02-03T12:20:45.927Z,95673.11
2018-02-03T12:23:11.932Z,95666.46
2018-02-03T12:25:37.987Z,95668.92
2018-02-03T12:28:04.264Z,95673.85
2018-02-03T12:30:31.186Z,95675.01
2018-02-03T12:32:57.207Z,95666.31
2018-02-03T12:35:23.238Z,95664.61
2018-02-03T12:37:49.265Z,95669.01
2018-02-03T12:40:15.313Z,95673.19
2018-02-03T12:42:41.304Z,95662.89
2018-02-03T12:45:07.382Z,95662.36
2018-02-03T12:47:33.412Z,95663.61
2018-02-03T12:49:59.431Z,95662.09
2018-02-03T12:52:25.501Z,95670.98
2018-02-03T12:54:51.577Z,95662.45
2018-02-03T12:57:17.587Z,95670.14
2018-02-03T12:59:43.580Z,95663.61
2018-02-03T13:02:09.615Z,95667.88
2018-02-03T13:04:35.695Z,95664.14
2018-02-03T13:07:01.684Z,95655.06
2018-02-03T13:09:27.724Z,95655.92
2018-02-03T13:11:53.726Z,95656.84
2018-02-03T13:14:19.761Z,95659.96
2018-02-03T13:16:45.831Z,95659.63
2018-02-03T13:19:11.858Z,95659.06
2018-02-03T13:21:37.929Z,95663.20
2018-02-03T13:24:03.932Z,95667.56
2018-02-03T13:26:29.929Z,95672.94
2018-02-03T13:28:55.911Z,95672.03
2018-02-03T13:31:22.025Z,95663.55
2018-02-03T13:33:48.768Z,95670.46
2018-02-03T13:36:14.917Z,95668.25
2018-02-03T13:38:40.918Z,95662.16
2018-02-03T13:41:06.921Z,95665.11
2018-02-03T13:43:32.949Z,95666.27
2018-02-03T13:45:58.929Z,95671.81
2018-02-03T13:48:24.976Z,95667.77
2018-02-03T13:50:51.019Z,95665.69
2018-02-03T13:53:17.031Z,95674.00
2018-02-03T13:55:43.002Z,95676.95
2018-02-03T13:58:09.035Z,95675.41
2018-02-03T14:00:35.092Z,95674.09
2018-02-03T14:03:01.096Z,95671.34
2018-02-03T14:05:27.174Z,95674.66
2018-02-03T14:07:53.277Z,95671.61
2018-02-03T14:10:19.327Z,95673.69
2018-02-03T14:12:45.916Z,95675.04
2018-02-03T14:15:11.950Z,95669.97
2018-02-03T14:17:38.064Z,95679.50
2018-02-03T14:20:04.112Z,95678.05
2018-02-03T14:22:30.125Z,95679.25
2018-02-03T14:25:02.546Z,95682.53
2018-02-03T14:27:28.593Z,95678.97
2018-02-03T14:29:54.680Z,95689.75
2018-02-03T14:32:20.740Z,95686.95
2018-02-03T14:34:46.809Z,95687.05
2018-02-03T14:37:12.828Z,95688.21
2018-02-03T14:39:38.857Z,95690.02
2018-02-03T14:42:04.901Z,95692.77
2018-02-03T14:44:30.913Z,95690.82
2018-02-03T14:46:56.907Z,95695.22
2018-02-03T14:49:23.296Z,95691.47
2018-02-03T14:51:49.446Z,95691.88
2018-02-03T14:54:15.524Z,95694.11
2018-02-03T14:56:41.456Z,95687.42
2018-02-03T14:59:07.457Z,95684.23
2018-02-03T15:01:33.404Z,95679.66
2018-02-03T15:03:59.383Z,95681.30
2018-02-03T15:06:25.423Z,95686.89
2018-02-03T15:08:51.408Z,95682.63
2018-02-03T15:11:17.447Z,95681.09
2018-02-03T15:13:43.569Z,95689.06
2018-02-03T15:16:09.607Z,95689.58
2018-02-03T15:18:35.700Z,95684.66
2018-02-03T15:21:01.717Z,95683.55
2018-02-03T15:23:27.732Z,95687.70
2018-02-03T15:25:53.765Z,95687.14
2018-02-03T15:28:19.788Z,95686.22
2018-02-03T15:30:45.799Z,95685.69
2018-02-03T15:33:11.872Z,95684.75
2018-02-03T15:35:38.189Z,95684.63
2018-02-03T15:38:04.246Z,95688.33
2018-02-03T15:40:30.230Z,95698.49
2018-02-03T15:42:56.209Z,95699.09
2018-02-03T15:45:22.227Z,95699.16
2018-02-03T15:47:48.220Z,95702.24
2018-02-03T15:50:14.284Z,95700.55
2018-02-03T15:52:40.260Z,95705.34
2018-02-03T15:55:06.309Z,95703.09
2018-02-03T15:57:32.377Z,95705.95
2018-02-03T15:59:58.320Z,95704.43
2018-02-03T16:02:24.302Z,95710.31
2018-02-03T16:04:50.397Z,95705.30
2018-02-03T16:07:16.429Z,95713.62
2018-02-03T16:09:42.516Z,95715.25
2018-02-03T16:12:08.541Z,95714.44
2018-02-03T16:14:34.552Z,95721.69
2018-02-03T16:17:00.586Z,95737.89
2018-02-03T16:19:26.612Z,95741.21
2018-02-03T16:21:52.656Z,95745.78
2018-02-03T16:24:18.698Z,95747.46
2018-02-03T16:26:44.704Z,95753.94
2018-02-03T16:29:10.791Z,95757.29
2018-02-03T16:31:36.823Z,95761.73
2018-02-03T16:34:02.832Z,95764.69
2018-02-03T16:36:28.899Z,95760.84
2018-02-03T16:38:54.863Z,95764.13
2018-02-03T16:41:20.816Z,95763.03
2018-02-03T16:43:46.875Z,95767.92
2018-02-03T16:46:12.916Z,95762.78
2018-02-03T16:48:38.933Z,95769.53
2018-02-03T16:51:04.944Z,95770.38
2018-02-03T16:53:30.917Z,95779.89
2018-02-03T16:55:56.963Z,95780.34
2018-02-03T16:58:23.052Z,95781.72
2018-02-03T17:00:49.017Z,95780.72
2018-02-03T17:03:15.044Z,95784.30
2018-02-03T17:05:41.203Z,95783.12
2018-02-03T17:08:07.216Z,95778.37
2018-02-03T17:10:33.289Z,95778.16
2018-02-03T17:12:59.320Z,95784.18
2018-02-03T17:15:25.284Z,95782.39
2018-02-03T17:17:51.352Z,95774.31
2018-02-03T17:20:17.348Z,95786.09
2018-02-03T17:22:43.582Z,95786.03
2018-02-03T17:25:09.677Z,95783.05
2018-02-03T17:27:35.764Z,95785.50
2018-02-03T17:30:01.825Z,95782.46
2018-02-03T17:32:27.812Z,95782.12
2018-02-03T17:34:53.892Z,95790.20
2018-02-03T17:37:25.878Z,95794.23
2018-02-03T17:39:51.975Z,95800.33
2018-02-03T17:42:17.950Z,95795.00
2018-02-03T17:44:44.005Z,95801.66
2018-02-03T17:47:10.055Z,95804.71
2018-02-03T17:49:36.157Z,95802.81
2018-02-03T17:52:02.261Z,95804.81
2018-02-03T17:54:28.258Z,95800.70
2018-02-03T17:57:00.244Z,95805.38
2018-02-03T17:59:26.256Z,95808.23
2018-02-03T18:01:52.331Z,95805.77
2018-02-03T18:04:18.383Z,95802.92
2018-02-03T18:06:50.620Z,95810.63
2018-02-03T18:09:16.739Z,95812.52
2018-02-03T18:11:42.780Z,95825.43
2018-02-03T18:14:08.780Z,95821.06
2018-02-03T18:16:35.068Z,95819.52
2018-02-03T18:19:01.271Z,95825.73
2018-02-03T18:21:27.551Z,95820.38
2018-02-03T18:23:53.677Z,95825.94
2018-02-03T18:26:20.116Z,95826.66
2018-02-03T18:28:46.263Z,95829.54
2018-02-03T18:31:12.909Z,95832.05
2018-02-03T18:33:39.078Z,95835.45
2018-02-03T18:36:05.310Z,95828.70
2018-02-03T18:38:31.716Z,95828.30
2018-02-03T18:40:57.909Z,95833.00
2018-02-03T18:43:24.037Z,95830.06
2018-02-03T18:45:50.135Z,95837.86
2018-02-03T18:48:16.640Z,95832.17
2018-02-03T18:50:42.915Z,95840.00
2018-02-03T18:53:11.095Z,95837.66
2018-02-03T18:55:37.752Z,95836.34
2018-02-03T18:58:03.996Z,95839.61
2018-02-03T19:00:30.920Z,95841.61
2018-02-03T19:02:57.312Z,95839.21
2018-02-03T19:05:23.709Z,95840.23
2018-02-03T19:07:50.170Z,95844.74
2018-02-03T19:10:17.396Z,95843.05
2018-02-03T19:12:43.851Z,95852.27
2018-02-03T19:15:11.464Z,95848.41
2018-02-03T19:17:39.854Z,95853.58
2018-02-03T19:29:52.811Z,95753.95
2018-02-03T19:32:21.261Z,95862.12
2018-02-03T19:47:26.036Z,95880.98
2018-02-03T19:49:52.113Z,95871.73
2018-02-03T19:52:18.174Z,95875.08
2018-02-03T19:54:44.226Z,95874.73
2018-02-03T19:57:10.221Z,95874.62
2018-02-03T19:59:36.270Z,95888.00
2018-02-03T20:02:02.315Z,95883.03
2018-02-03T20:04:28.417Z,95878.13
2018-02-03T20:06:54.425Z,95884.58
2018-02-03T20:09:21.348Z,95873.27
2018-02-03T20:11:47.373Z,95883.58
2018-02-03T20:14:13.429Z,95887.30
2018-02-03T20:16:39.730Z,95895.98
2018-02-03T20:19:05.846Z,95892.09
2018-02-03T20:21:31.835Z,95894.30
2018-02-03T20:23:57.865Z,95899.84
2018-02-03T20:26:23.989Z,95898.16
2018-02-03T20:28:50.325Z,95903.89
2018-02-03T20:31:16.442Z,95903.78
2018-02-03T20:33:42.484Z,95907.64
2018-02-03T20:36:08.601Z,95911.05
2018-02-03T20:38:35.179Z,95920.03
2018-02-03T20:41:01.275Z,95927.03
2018-02-03T20:43:27.354Z,95929.77
2018-02-03T20:45:53.375Z,95933.78
2018-02-03T20:48:19.462Z,95923.55
2018-02-03T20:50:45.546Z,95932.63
2018-02-03T20:53:11.659Z,95939.78
2018-02-03T20:55:37.781Z,95937.97
2018-02-03T20:58:03.842Z,95936.92
2018-02-03T21:00:29.991Z,95943.28
2018-02-03T21:02:56.047Z,95945.98
2018-02-03T21:05:22.169Z,95950.66
2018-02-03T21:07:48.263Z,95951.95
2018-02-03T21:10:14.295Z,95949.61
2018-02-03T21:12:40.402Z,95946.63
2018-02-03T21:15:06.449Z,95951.83
2018-02-03T21:17:32.473Z,95954.28
2018-02-03T21:19:58.533Z,95960.26
2018-02-03T21:22:24.576Z,95962.19
2018-02-03T21:24:50.608Z,95959.06
2018-02-03T21:27:16.758Z,95963.50
2018-02-03T21:29:42.761Z,95961.92
2018-02-03T21:32:08.788Z,95964.78
2018-02-03T21:34:34.804Z,95964.40
2018-02-03T21:37:00.919Z,95973.35
2018-02-03T21:39:26.942Z,95971.80
2018-02-03T21:41:52.955Z,95977.78
2018-02-03T21:44:18.954Z,95977.77
2018-02-03T21:46:44.999Z,95974.41
2018-02-03T21:49:11.004Z,95977.37
2018-02-03T21:51:37.088Z,95986.08
2018-02-03T21:54:03.176Z,95982.95
2018-02-03T21:56:29.244Z,95983.84
2018-02-03T21:58:55.252Z,95986.05
2018-02-03T22:01:21.345Z,95988.77
2018-02-03T22:03:54.218Z,95999.26
2018-02-03T22:06:20.182Z,96000.33
2018-02-03T22:08:46.102Z,96002.27
2018-02-03T22:11:12.535Z,95998.12
2018-02-03T22:13:39.224Z,96001.36
2018-02-03T22:16:05.502Z,95997.69
2018-02-03T22:18:31.596Z,96005.56
2018-02-03T22:20:57.596Z,96007.16
2018-02-03T22:23:23.624Z,96005.56
2018-02-03T22:25:49.652Z,96015.66
2018-02-03T22:28:15.665Z,96016.86
2018-02-03T22:30:41.718Z,96021.91
2018-02-03T22:33:07.969Z,96017.64
2018-02-03T22:35:34.364Z,96022.69
2018-02-03T22:38:00.392Z,96023.52
2018-02-03T22:40:26.441Z,96022.11
2018-02-03T22:42:52.477Z,96025.20
2018-02-03T22:45:18.495Z,96029.84
2018-02-03T22:47:44.610Z,96027.38
2018-02-03T22:50:10.684Z,96039.18
2018-02-03T22:52:36.677Z,96033.12
2018-02-03T22:55:02.885Z,96035.81
2018-02-03T22:57:28.952Z,96038.50
2018-02-03T22:59:55.045Z,96040.57
2018-02-03T23:02:26.941Z,96042.86
2018-02-03T23:04:52.964Z,96040.05
2018-02-03T23:07:18.961Z,96044.42
2018-02-03T23:09:45.013Z,96047.47
2018-02-03T23:12:11.043Z,96045.54
2018-02-03T23:14:37.073Z,96046.65
2018-02-03T23:17:03.116Z,96048.20
2018-02-03T23:19:29.186Z,96050.98
2018-02-03T23:21:55.197Z,96044.83
2018-02-03T23:24:21.204Z,96055.37
2018-02-03T23:26:47.221Z,96054.98
2018-02-03T23:29:13.237Z,96054.08
2018-02-03T23:31:51.606Z,96051.36
2018-02-03T23:34:17.624Z,96052.27
2018-02-03T23:36:43.696Z,96052.41
2018-02-03T23:39:09.752Z,96062.83
2018-02-03T23:41:35.823Z,96059.14
2018-02-03T23:44:01.894Z,96058.11
2018-02-03T23:46:27.944Z,96064.50
2018-02-03T23:48:53.945Z,96077.58
2018-02-03T23:51:19.944Z,96076.30
2018-02-03T23:53:46.044Z,96073.66
2018-02-03T23:56:12.100Z,96066.20
2018-02-03T23:58:38.150Z,96070.09
